Time;durP1;ratioP1;P1;durP2;ratioP2;P2;SDS_P1;SDS_P2;PMS_P1;PMS_P2;Temp;Humidity;BMP_temperature;BMP_pressure;BME280_temperature;BME280_humidity;BME280_pressure;Samples;Min_cycle;Max_cycle;Signal;HPM_P1;HPM_P2
2021/03/10 00:02:17;;;;;;;12.35;6.20;;;1.00;35.00;;;;;;5095108;28;20036;-75
2021/03/10 00:04:43;;;;;;;13.65;7.50;;;1.00;34.90;;;;;;5094386;28;20036;-75
2021/03/10 00:07:09;;;;;;;12.05;6.45;;;0.90;34.90;;;;;;5103752;27;20043;-77
2021/03/10 00:09:35;;;;;;;14.30;7.63;;;0.90;35.00;;;;;;5090385;28;20092;-81
2021/03/10 00:12:01;;;;;;;12.60;7.75;;;0.90;34.90;;;;;;5083698;28;20044;-77
2021/03/10 00:14:27;;;;;;;11.43;7.05;;;0.90;34.90;;;;;;5095423;28;20024;-76
2021/03/10 00:16:53;;;;;;;16.52;8.15;;;0.90;34.90;;;;;;5096430;28;20075;-76
2021/03/10 00:19:19;;;;;;;13.52;7.65;;;0.90;34.90;;;;;;5115945;28;20121;-74
2021/03/10 00:21:45;;;;;;;14.02;7.20;;;0.80;34.70;;;;;;5094016;28;20484;-74
2021/03/10 00:24:11;;;;;;;16.25;6.65;;;0.90;34.80;;;;;;5094577;28;20134;-74
2021/03/10 00:26:37;;;;;;;12.55;6.50;;;0.90;34.70;;;;;;5097303;28;20032;-76
2021/03/10 00:29:03;;;;;;;14.23;6.55;;;0.90;34.60;;;;;;5079645;28;20039;-76
2021/03/10 00:31:29;;;;;;;11.55;6.07;;;0.90;34.60;;;;;;5080025;28;20028;-75
2021/03/10 00:33:55;;;;;;;11.65;7.10;;;0.90;35.20;;;;;;5097439;28;20123;-76
2021/03/10 00:36:21;;;;;;;10.77;6.70;;;0.90;34.60;;;;;;5097375;28;20378;-76
2021/03/10 00:38:47;;;;;;;12.23;7.10;;;0.90;34.40;;;;;;5097147;28;20085;-75
2021/03/10 00:41:13;;;;;;;15.73;7.00;;;1.00;34.50;;;;;;5096334;28;20036;-76
2021/03/10 00:43:39;;;;;;;10.45;6.57;;;1.00;34.40;;;;;;5097602;28;20060;-77
2021/03/10 00:46:05;;;;;;;12.48;6.95;;;1.00;34.30;;;;;;5097390;28;20044;-75
2021/03/10 00:48:31;;;;;;;11.60;6.68;;;0.90;34.30;;;;;;5097036;28;20039;-75
2021/03/10 00:50:56;;;;;;;10.88;6.20;;;1.00;34.30;;;;;;5094851;28;20043;-77
2021/03/10 00:53:22;;;;;;;12.93;6.97;;;0.90;34.10;;;;;;5098092;28;20551;-76
2021/03/10 00:55:48;;;;;;;12.43;6.75;;;1.00;34.30;;;;;;5080182;28;20028;-75
2021/03/10 00:58:14;;;;;;;10.38;6.70;;;1.00;34.70;;;;;;5078108;28;20439;-77
2021/03/10 01:00:40;;;;;;;10.60;6.57;;;1.00;34.10;;;;;;5077601;28;20032;-77
2021/03/10 01:03:06;;;;;;;14.10;6.95;;;1.00;34.00;;;;;;5112785;28;20134;-75
2021/03/10 01:05:32;;;;;;;12.05;6.82;;;0.90;34.00;;;;;;5079130;28;20153;-75
2021/03/10 01:07:58;;;;;;;14.13;7.45;;;0.90;34.10;;;;;;5106110;28;20040;-73
2021/03/10 01:10:25;;;;;;;12.27;6.45;;;0.90;34.10;;;;;;5109437;28;20055;-77
2021/03/10 01:12:51;;;;;;;12.20;7.03;;;0.90;34.20;;;;;;5099829;28;20079;-76
2021/03/10 01:15:18;;;;;;;11.93;6.82;;;0.90;34.20;;;;;;5098846;28;20036;-76
2021/03/10 01:17:45;;;;;;;10.73;5.90;;;0.90;34.20;;;;;;5115942;28;20032;-74
2021/03/10 01:20:15;;;;;;;14.60;7.15;;;0.90;34.20;;;;;;5099194;28;20602;-73
2021/03/10 01:22:41;;;;;;;12.68;7.22;;;0.80;34.10;;;;;;5078145;28;20032;-73
2021/03/10 01:25:08;;;;;;;14.25;7.07;;;0.80;34.20;;;;;;5096039;28;20515;-74
2021/03/10 01:27:34;;;;;;;10.63;6.50;;;0.80;34.20;;;;;;5096263;28;20040;-75
2021/03/10 01:30:00;;;;;;;11.82;6.50;;;0.80;34.20;;;;;;5096247;28;20042;-73
2021/03/10 01:32:26;;;;;;;13.40;6.90;;;0.80;34.10;;;;;;5095943;28;20056;-74
2021/03/10 01:34:52;;;;;;;10.65;6.35;;;0.80;34.10;;;;;;5095651;28;20071;-75
2021/03/10 01:37:18;;;;;;;10.82;6.82;;;0.80;34.10;;;;;;5094980;28;20039;-73
2021/03/10 01:39:44;;;;;;;11.45;6.45;;;0.80;34.10;;;;;;5096352;28;20071;-75
2021/03/10 01:42:10;;;;;;;13.23;6.30;;;0.70;34.10;;;;;;5096649;28;20496;-74
2021/03/10 01:44:36;;;;;;;11.63;6.40;;;0.70;34.00;;;;;;5096370;28;20032;-73
2021/03/10 01:47:02;;;;;;;10.75;6.35;;;0.70;34.00;;;;;;5097029;28;20039;-75
2021/03/10 01:49:28;;;;;;;13.10;6.80;;;0.80;34.00;;;;;;5112716;28;20067;-72
2021/03/10 01:51:55;;;;;;;10.00;6.30;;;0.70;33.90;;;;;;5095397;28;20034;-72
2021/03/10 01:54:21;;;;;;;10.85;6.28;;;0.70;33.90;;;;;;5100266;28;20056;-75
2021/03/10 01:56:47;;;;;;;12.57;6.88;;;0.80;34.00;;;;;;5115803;28;20497;-76
2021/03/10 01:59:13;;;;;;;10.05;6.80;;;0.80;33.90;;;;;;5098408;28;20530;-75
2021/03/10 02:01:39;;;;;;;9.75;6.32;;;0.90;33.80;;;;;;5113217;28;20036;-73
2021/03/10 02:04:08;;;;;;;12.70;6.68;;;0.90;33.60;;;;;;5097018;28;20402;-72
2021/03/10 02:07:02;;;;;;;12.00;6.78;;;1.00;33.60;;;;;;5095941;28;20031;-74
2021/03/10 02:09:43;;;;;;;12.77;6.55;;;1.00;33.50;;;;;;5102209;28;20058;-72
2021/03/10 02:12:30;;;;;;;12.48;6.40;;;1.00;33.40;;;;;;5101801;28;20035;-73
2021/03/10 02:15:02;;;;;;;10.55;5.75;;;1.00;33.20;;;;;;5061102;28;20028;-73
2021/03/10 02:17:36;;;;;;;11.30;6.47;;;1.00;33.30;;;;;;5094774;28;20040;-73
2021/03/10 02:20:05;;;;;;;12.57;6.20;;;1.10;33.40;;;;;;5096403;28;20063;-74
2021/03/10 02:23:08;;;;;;;12.27;6.78;;;1.10;33.20;;;;;;5095847;28;20119;-72
2021/03/10 02:25:59;;;;;;;14.45;7.53;;;1.10;33.20;;;;;;5095695;28;20442;-74
2021/03/10 02:28:26;;;;;;;11.23;7.32;;;1.20;33.20;;;;;;5077779;28;20079;-73
2021/03/10 02:30:55;;;;;;;12.38;6.07;;;1.20;33.00;;;;;;5077695;28;20470;-74
2021/03/10 02:33:24;;;;;;;13.30;6.78;;;1.20;32.90;;;;;;5095623;28;20040;-74
2021/03/10 02:36:10;;;;;;;12.90;6.40;;;1.30;32.80;;;;;;5078122;28;20085;-72
2021/03/10 02:38:38;;;;;;;;;;;1.30;32.70;;;;;;5112464;28;20579;-73
2021/03/10 02:41:05;;;;;;;11.63;6.20;;;1.30;32.80;;;;;;5095508;28;19911;-71
2021/03/10 02:43:31;;;;;;;12.10;6.57;;;1.20;32.50;;;;;;5095181;28;20028;-73
2021/03/10 02:46:00;;;;;;;10.93;6.38;;;1.20;32.70;;;;;;5077314;28;20036;-72
2021/03/10 02:48:26;;;;;;;14.52;6.40;;;1.20;32.70;;;;;;5077266;28;20040;-73
2021/03/10 02:50:55;;;;;;;10.48;6.30;;;1.20;32.70;;;;;;5096479;28;20039;-73
2021/03/10 02:53:22;;;;;;;9.75;6.10;;;1.20;32.60;;;;;;5077706;28;20491;-73
2021/03/10 02:55:49;;;;;;;11.13;6.85;;;1.20;32.60;;;;;;5095610;28;20097;-73
2021/03/10 02:58:14;;;;;;;13.32;6.38;;;1.20;32.60;;;;;;5061305;28;20117;-75
2021/03/10 03:00:41;;;;;;;13.18;6.75;;;1.20;32.60;;;;;;5096037;28;20059;-75
2021/03/10 03:03:08;;;;;;;11.82;6.78;;;1.20;32.60;;;;;;5096529;28;20042;-74
2021/03/10 03:05:34;;;;;;;11.73;6.28;;;1.20;32.50;;;;;;5096674;28;20037;-74
2021/03/10 03:08:02;;;;;;;10.82;6.13;;;1.20;32.40;;;;;;5095069;28;20028;-74
2021/03/10 03:10:34;;;;;;;9.80;6.10;;;1.20;32.40;;;;;;5086488;28;20044;-74
2021/03/10 03:13:01;;;;;;;14.73;5.60;;;1.20;32.40;;;;;;5083658;28;20088;-72
2021/03/10 03:15:29;;;;;;;10.30;5.72;;;1.20;32.30;;;;;;5098114;28;21953;-76
2021/03/10 03:17:56;;;;;;;12.88;6.45;;;1.20;32.40;;;;;;5099710;28;20076;-78
2021/03/10 03:20:24;;;;;;;12.10;6.13;;;1.20;32.40;;;;;;5101305;28;20129;-70
2021/03/10 03:22:55;;;;;;;12.32;6.85;;;1.20;32.40;;;;;;5117337;27;20066;-72
2021/03/10 03:25:24;;;;;;;12.05;6.03;;;1.20;32.40;;;;;;5113628;28;20032;-72
2021/03/10 03:27:59;;;;;;;11.30;6.97;;;1.20;32.30;;;;;;5113288;28;20035;-71
2021/03/10 03:30:26;;;;;;;11.68;6.38;;;1.20;32.30;;;;;;5093751;28;20035;-71
2021/03/10 03:32:56;;;;;;;12.98;6.72;;;1.30;32.30;;;;;;5117481;28;20031;-74
2021/03/10 03:35:23;;;;;;;10.30;5.97;;;1.20;32.20;;;;;;5118738;28;20024;-75
2021/03/10 03:37:52;;;;;;;13.13;7.10;;;1.20;32.20;;;;;;5102766;28;20398;-71
2021/03/10 03:40:21;;;;;;;12.68;6.93;;;1.00;32.40;;;;;;5114748;28;20027;-73
2021/03/10 03:42:48;;;;;;;11.57;7.03;;;1.00;32.50;;;;;;5112759;28;20503;-71
2021/03/10 03:45:18;;;;;;;12.23;6.07;;;1.00;32.60;;;;;;5114813;28;20492;-73
2021/03/10 03:47:51;;;;;;;11.82;7.22;;;1.00;32.40;;;;;;5098024;28;20039;-72
2021/03/10 03:50:18;;;;;;;12.45;6.47;;;0.90;32.40;;;;;;5080363;28;20051;-71
2021/03/10 03:52:44;;;;;;;10.30;6.32;;;0.90;32.40;;;;;;5116904;28;20028;-78
2021/03/10 03:55:12;;;;;;;9.48;5.60;;;0.90;32.30;;;;;;5116419;28;20052;-73
2021/03/10 03:57:38;;;;;;;12.20;6.50;;;0.90;32.40;;;;;;5109755;28;20028;-74
2021/03/10 04:00:06;;;;;;;9.85;6.00;;;0.80;32.30;;;;;;5113501;28;20052;-77
2021/03/10 04:02:38;;;;;;;8.32;5.60;;;0.80;32.50;;;;;;5101674;28;20035;-76
2021/03/10 04:05:05;;;;;;;11.65;6.45;;;0.80;32.50;;;;;;5120187;28;20035;-76
2021/03/10 04:07:31;;;;;;;10.88;5.90;;;0.70;32.20;;;;;;5119934;28;20039;-72
2021/03/10 04:09:57;;;;;;;10.88;6.25;;;0.70;32.20;;;;;;5112369;28;20044;-73
2021/03/10 04:12:23;;;;;;;9.65;5.75;;;0.60;32.30;;;;;;5130828;27;20043;-70
2021/03/10 04:14:49;;;;;;;12.80;6.28;;;0.70;32.50;;;;;;5112637;28;20024;-73
2021/03/10 04:17:15;;;;;;;12.02;6.43;;;0.60;32.50;;;;;;5114570;28;20046;-77
2021/03/10 04:19:42;;;;;;;9.70;5.90;;;0.60;32.50;;;;;;5066665;28;20086;-70
2021/03/10 04:22:08;;;;;;;10.80;6.18;;;0.60;32.30;;;;;;5101589;28;20031;-69
2021/03/10 04:24:34;;;;;;;11.45;6.40;;;0.60;32.50;;;;;;5092738;28;20028;-69
2021/03/10 04:27:00;;;;;;;11.95;6.63;;;0.70;32.40;;;;;;5092559;28;20404;-69
2021/03/10 04:29:26;;;;;;;11.43;6.55;;;0.70;32.40;;;;;;5092885;28;20071;-68
2021/03/10 04:31:52;;;;;;;11.77;6.97;;;0.70;32.40;;;;;;5092567;28;20071;-69
2021/03/10 04:34:18;;;;;;;10.38;6.03;;;0.70;32.20;;;;;;5108682;28;20035;-76
2021/03/10 04:36:44;;;;;;;11.95;6.72;;;0.70;32.20;;;;;;5096284;28;20114;-72
2021/03/10 04:39:10;;;;;;;12.13;6.75;;;0.70;32.30;;;;;;5092710;28;20040;-73
2021/03/10 04:41:36;;;;;;;12.23;6.22;;;0.70;32.10;;;;;;5077995;28;20032;-71
2021/03/10 04:44:02;;;;;;;11.90;6.25;;;0.70;32.20;;;;;;5089315;28;20051;-77
2021/03/10 04:46:28;;;;;;;12.43;6.53;;;0.70;32.00;;;;;;5089320;28;20032;-72
2021/03/10 04:48:54;;;;;;;13.02;6.25;;;0.80;32.20;;;;;;5105961;28;20043;-74
2021/03/10 04:51:19;;;;;;;11.68;7.22;;;0.70;32.00;;;;;;5116989;28;20059;-73
2021/03/10 04:53:45;;;;;;;11.07;5.90;;;0.70;32.00;;;;;;5115578;28;20552;-71
2021/03/10 04:56:11;;;;;;;11.05;6.60;;;0.70;31.90;;;;;;5117343;28;20126;-72
2021/03/10 04:58:37;;;;;;;12.50;7.13;;;0.70;32.10;;;;;;5116800;28;20043;-73
2021/03/10 05:01:03;;;;;;;12.93;6.80;;;0.70;32.20;;;;;;5118026;28;20038;-75
2021/03/10 05:03:29;;;;;;;11.48;6.38;;;0.60;32.20;;;;;;5117717;28;20042;-74
2021/03/10 05:05:55;;;;;;;11.88;6.05;;;0.60;32.20;;;;;;5117833;28;20031;-73
2021/03/10 05:08:21;;;;;;;11.52;6.25;;;0.60;32.30;;;;;;5116701;28;20030;-70
2021/03/10 05:10:47;;;;;;;11.77;7.05;;;0.60;32.30;;;;;;5098426;28;20039;-70
2021/03/10 05:13:13;;;;;;;11.73;7.00;;;0.70;32.20;;;;;;5117123;28;20115;-70
2021/03/10 05:15:39;;;;;;;11.85;6.57;;;0.80;32.10;;;;;;5098513;28;20067;-70
2021/03/10 05:18:05;;;;;;;11.80;7.18;;;0.90;32.10;;;;;;5116391;28;20055;-69
2021/03/10 05:20:31;;;;;;;11.52;6.93;;;0.90;31.90;;;;;;5097983;28;20074;-70
2021/03/10 05:22:57;;;;;;;13.65;7.00;;;1.00;31.70;;;;;;5116873;28;20067;-68
2021/03/10 05:25:22;;;;;;;10.73;6.75;;;1.10;31.70;;;;;;5116959;28;20147;-71
2021/03/10 05:27:48;;;;;;;13.32;6.88;;;1.10;31.50;;;;;;5116499;28;20505;-69
2021/03/10 05:30:15;;;;;;;11.05;6.90;;;1.20;31.40;;;;;;5099453;28;20044;-71
2021/03/10 05:32:41;;;;;;;11.48;6.80;;;1.20;31.30;;;;;;5098861;28;20088;-70
2021/03/10 05:35:07;;;;;;;12.55;7.85;;;1.30;31.20;;;;;;5098190;28;20558;-70
2021/03/10 05:37:33;;;;;;;12.55;7.10;;;1.40;31.10;;;;;;5099529;28;20048;-72
2021/03/10 05:39:59;;;;;;;11.05;6.85;;;1.50;31.10;;;;;;5080919;28;20134;-70
2021/03/10 05:42:25;;;;;;;9.60;6.55;;;1.70;31.10;;;;;;5116053;28;20616;-69
2021/03/10 05:44:51;;;;;;;13.45;6.93;;;1.80;30.90;;;;;;5116027;28;20560;-69
2021/03/10 05:47:20;;;;;;;11.02;6.18;;;2.00;31.00;;;;;;5097494;28;20074;-70
2021/03/10 05:49:47;;;;;;;11.90;7.47;;;2.20;30.90;;;;;;5097234;28;20492;-70
2021/03/10 05:52:14;;;;;;;12.77;6.88;;;2.40;30.80;;;;;;5115557;28;20043;-69
2021/03/10 05:54:43;;;;;;;12.25;7.53;;;2.70;30.70;;;;;;5115688;28;20484;-69
2021/03/10 05:57:09;;;;;;;9.55;6.07;;;2.90;30.60;;;;;;5115673;28;20042;-69
2021/03/10 05:59:36;;;;;;;11.15;6.75;;;3.10;30.40;;;;;;5096959;28;20074;-69
2021/03/10 06:02:03;;;;;;;10.85;7.25;;;3.30;30.30;;;;;;5115579;28;20096;-70
2021/03/10 06:04:41;;;;;;;8.93;6.32;;;3.40;30.00;;;;;;5080402;28;20023;-70
2021/03/10 06:07:21;;;;;;;11.25;6.50;;;3.70;30.10;;;;;;5115459;28;20074;-70
2021/03/10 06:10:02;;;;;;;11.65;7.03;;;3.90;30.00;;;;;;5097112;28;20122;-69
2021/03/10 06:12:39;;;;;;;9.90;6.82;;;4.10;30.00;;;;;;5097246;28;20039;-67
2021/03/10 06:15:07;;;;;;;8.90;5.70;;;4.30;29.80;;;;;;5097249;28;20039;-68
2021/03/10 06:17:47;;;;;;;9.55;6.13;;;4.50;31.20;;;;;;5097213;28;20126;-69
2021/03/10 06:20:26;;;;;;;11.65;6.82;;;4.80;32.60;;;;;;5115484;28;20039;-68
2021/03/10 06:22:54;;;;;;;8.45;5.78;;;5.00;33.30;;;;;;5115457;28;20580;-69
2021/03/10 06:25:21;;;;;;;7.05;5.07;;;5.20;33.40;;;;;;5114960;28;20384;-69
2021/03/10 06:27:55;;;;;;;11.23;6.25;;;5.50;33.70;;;;;;5097004;28;20035;-69
2021/03/10 06:30:41;;;;;;;10.00;5.85;;;5.70;33.40;;;;;;5115158;28;20051;-67
2021/03/10 06:33:09;;;;;;;10.95;7.22;;;5.90;33.90;;;;;;5115061;28;20070;-68
2021/03/10 06:35:36;;;;;;;9.50;6.55;;;6.10;33.20;;;;;;5115221;28;20043;-69
2021/03/10 06:38:06;;;;;;;8.70;5.53;;;6.30;32.90;;;;;;5114904;28;20424;-68
2021/03/10 06:40:32;;;;;;;8.50;5.07;;;6.50;32.90;;;;;;5114585;28;20063;-67
2021/03/10 06:42:59;;;;;;;8.18;5.47;;;6.70;32.70;;;;;;5096578;28;20517;-68
2021/03/10 06:45:32;;;;;;;10.38;5.35;;;6.90;32.60;;;;;;5114818;28;20449;-66
2021/03/10 06:47:58;;;;;;;8.52;5.35;;;7.00;32.20;;;;;;5114852;28;20038;-67
2021/03/10 06:50:37;;;;;;;8.40;5.05;;;7.10;32.60;;;;;;5096185;28;20511;-67
2021/03/10 06:53:03;;;;;;;13.25;8.90;;;7.30;32.00;;;;;;5114721;28;20046;-67
2021/03/10 06:55:37;;;;;;;11.85;7.43;;;7.40;31.80;;;;;;5096060;28;20036;-67
2021/03/10 06:58:04;;;;;;;8.98;6.13;;;7.60;31.90;;;;;;5096526;28;20089;-66
2021/03/10 07:00:30;;;;;;;8.27;5.63;;;7.70;31.90;;;;;;5114431;28;20473;-67
2021/03/10 07:02:56;;;;;;;8.77;6.18;;;7.80;31.70;;;;;;5113638;28;20036;-67
2021/03/10 07:05:23;;;;;;;9.10;5.65;;;7.90;31.40;;;;;;5114173;28;20043;-67
2021/03/10 07:07:50;;;;;;;8.00;5.28;;;8.00;31.50;;;;;;5095967;28;20388;-66
2021/03/10 07:10:16;;;;;;;8.95;5.20;;;8.10;31.30;;;;;;5114340;28;20040;-73
2021/03/10 07:12:43;;;;;;;7.70;5.22;;;8.20;31.30;;;;;;5114191;28;20628;-68
2021/03/10 07:15:09;;;;;;;8.95;4.68;;;8.30;31.10;;;;;;5096192;28;20040;-69
2021/03/10 07:17:36;;;;;;;6.53;4.65;;;8.30;31.00;;;;;;5114424;28;20043;-69
2021/03/10 07:20:03;;;;;;;6.15;4.93;;;8.40;31.20;;;;;;5095788;28;20082;-67
2021/03/10 07:22:54;;;;;;;8.90;5.28;;;8.50;31.10;;;;;;5114139;28;20505;-68
2021/03/10 07:25:32;;;;;;;5.85;4.40;;;8.60;31.30;;;;;;5114247;28;20032;-69
2021/03/10 07:27:58;;;;;;;7.90;4.85;;;8.60;31.00;;;;;;5095886;28;20119;-68
2021/03/10 07:30:43;;;;;;;5.53;4.63;;;8.70;30.70;;;;;;5113541;28;20558;-70
2021/03/10 07:33:11;;;;;;;6.43;4.75;;;8.70;30.50;;;;;;5095776;28;20028;-68
2021/03/10 07:35:58;;;;;;;7.00;4.70;;;8.70;30.30;;;;;;5113809;28;20027;-68
2021/03/10 07:38:45;;;;;;;7.43;4.85;;;8.70;30.30;;;;;;5113542;28;20043;-67
2021/03/10 07:41:15;;;;;;;6.07;4.72;;;8.70;30.20;;;;;;5112801;28;20070;-69
2021/03/10 07:43:47;;;;;;;5.88;4.30;;;8.70;30.20;;;;;;5095973;28;20499;-68
2021/03/10 07:46:22;;;;;;;5.85;4.38;;;8.70;30.50;;;;;;5113666;28;20027;-68
2021/03/10 07:48:48;;;;;;;7.05;4.45;;;8.70;30.40;;;;;;5113657;28;20165;-68
2021/03/10 07:51:43;;;;;;;8.23;4.78;;;8.70;30.40;;;;;;5113366;28;20149;-72
2021/03/10 07:54:21;;;;;;;7.22;4.93;;;8.70;30.50;;;;;;5100291;28;20095;-67
2021/03/10 07:56:47;;;;;;;6.32;4.68;;;8.80;30.50;;;;;;5078349;28;20039;-68
2021/03/10 07:59:18;;;;;;;7.07;5.00;;;8.80;30.40;;;;;;5113410;28;20047;-67
2021/03/10 08:01:44;;;;;;;7.72;5.47;;;8.70;30.20;;;;;;5113251;28;20035;-68
2021/03/10 08:04:11;;;;;;;8.27;5.63;;;8.60;30.10;;;;;;5095206;28;20034;-69
2021/03/10 08:06:47;;;;;;;7.55;4.97;;;8.60;30.20;;;;;;5113742;28;20031;-71
2021/03/10 08:09:15;;;;;;;7.53;5.22;;;8.50;30.10;;;;;;5078279;28;20038;-69
2021/03/10 08:11:44;;;;;;;9.10;5.78;;;8.50;30.20;;;;;;5113597;28;20046;-69
2021/03/10 08:14:13;;;;;;;9.52;5.80;;;8.50;30.20;;;;;;5113297;28;20035;-71
2021/03/10 08:16:50;;;;;;;9.57;5.43;;;8.40;30.20;;;;;;5099380;28;20121;-78
2021/03/10 08:19:23;;;;;;;7.68;5.07;;;8.30;30.20;;;;;;5117916;28;20058;-74
2021/03/10 08:21:54;;;;;;;7.10;5.18;;;8.30;30.20;;;;;;5095751;28;20035;-72
2021/03/10 08:24:22;;;;;;;9.38;6.20;;;8.20;30.30;;;;;;5113569;28;20177;-71
2021/03/10 08:26:53;;;;;;;9.05;5.90;;;8.20;30.50;;;;;;5113355;28;20503;-74
2021/03/10 08:29:20;;;;;;;8.65;5.75;;;8.10;30.60;;;;;;5078389;28;20039;-72
2021/03/10 08:31:49;;;;;;;9.30;5.22;;;8.10;30.70;;;;;;5078362;28;20047;-68
2021/03/10 08:34:30;;;;;;;7.63;5.25;;;8.00;31.10;;;;;;5113223;28;20047;-74
2021/03/10 08:36:56;;;;;;;9.68;5.32;;;8.00;30.90;;;;;;5113551;28;20032;-71
2021/03/10 08:39:23;;;;;;;8.65;5.20;;;8.00;31.00;;;;;;5094665;28;20144;-72
2021/03/10 08:41:52;;;;;;;9.23;5.90;;;7.90;31.00;;;;;;5078120;28;20039;-72
2021/03/10 08:44:21;;;;;;;7.63;5.22;;;7.90;31.20;;;;;;5113132;28;20503;-72
2021/03/10 08:46:48;;;;;;;8.85;5.50;;;7.90;31.40;;;;;;5094721;28;20443;-73
2021/03/10 08:49:26;;;;;;;10.45;6.07;;;7.80;31.50;;;;;;5113037;28;20035;-74
2021/03/10 08:52:14;;;;;;;7.38;5.45;;;7.80;31.70;;;;;;5078239;28;20134;-73
2021/03/10 08:54:48;;;;;;;9.45;5.50;;;7.70;31.50;;;;;;5078055;28;20084;-73
2021/03/10 08:57:15;;;;;;;8.23;5.30;;;7.60;31.50;;;;;;5094629;28;20048;-73
2021/03/10 08:59:41;;;;;;;9.35;5.93;;;7.60;31.70;;;;;;5113459;28;20046;-72
2021/03/10 09:02:07;;;;;;;9.32;6.00;;;7.60;31.80;;;;;;5112702;28;20407;-73
2021/03/10 09:04:34;;;;;;;7.68;5.70;;;7.50;32.00;;;;;;5094659;28;20049;-72
2021/03/10 09:07:01;;;;;;;8.57;5.90;;;7.40;32.00;;;;;;5094512;28;20035;-72
2021/03/10 09:09:33;;;;;;;9.15;5.70;;;7.30;31.70;;;;;;5078030;28;20039;-73
2021/03/10 09:12:00;;;;;;;8.18;5.10;;;7.20;31.70;;;;;;5112840;28;20494;-72
2021/03/10 09:14:42;;;;;;;6.88;5.38;;;7.10;31.80;;;;;;5094465;28;20075;-67
2021/03/10 09:17:11;;;;;;;9.88;5.32;;;7.10;32.00;;;;;;5094495;28;20527;-67
2021/03/10 09:19:45;;;;;;;7.63;5.13;;;7.10;32.50;;;;;;5094014;28;20423;-66
2021/03/10 09:22:20;;;;;;;8.05;5.72;;;7.10;32.80;;;;;;5094436;28;20040;-67
2021/03/10 09:24:52;;;;;;;7.00;4.87;;;7.10;33.20;;;;;;5077948;28;20032;-68
2021/03/10 09:27:20;;;;;;;8.13;5.40;;;7.10;33.20;;;;;;5096966;28;20043;-69
2021/03/10 09:29:47;;;;;;;7.78;4.93;;;7.00;33.20;;;;;;5116231;28;20043;-69
2021/03/10 09:32:14;;;;;;;6.95;4.85;;;7.00;33.20;;;;;;5098774;28;20043;-69
2021/03/10 09:34:41;;;;;;;6.80;4.78;;;7.00;33.00;;;;;;5097611;28;20035;-69
2021/03/10 09:37:13;;;;;;;7.25;5.20;;;7.00;32.90;;;;;;5116154;28;20480;-70
2021/03/10 09:39:51;;;;;;;10.15;5.03;;;6.90;32.90;;;;;;5097972;28;20495;-69
2021/03/10 09:42:28;;;;;;;7.85;4.60;;;6.90;33.00;;;;;;5082689;28;20043;-75
2021/03/10 09:45:00;;;;;;;5.90;4.47;;;6.80;33.10;;;;;;5098861;28;20495;-69
2021/03/10 09:47:50;;;;;;;8.93;4.78;;;6.80;33.10;;;;;;5098036;28;20043;-69
2021/03/10 09:50:33;;;;;;;5.85;4.28;;;6.80;33.00;;;;;;5081172;28;20043;-69
2021/03/10 09:53:25;;;;;;;10.48;4.75;;;6.80;32.90;;;;;;5097630;28;20031;-68
2021/03/10 09:56:15;;;;;;;6.28;4.30;;;6.70;33.20;;;;;;5100125;28;20027;-68
2021/03/10 09:58:51;;;;;;;7.85;5.13;;;6.90;39.20;;;;;;5097115;28;20044;-68
2021/03/10 10:01:29;;;;;;;7.73;4.77;;;7.00;39.00;;;;;;5081389;28;20040;-65
2021/03/10 10:03:58;;;;;;;9.95;5.13;;;7.10;37.70;;;;;;5115654;28;20783;-66
2021/03/10 10:06:30;;;;;;;7.50;4.97;;;7.10;36.50;;;;;;5097331;28;20388;-66
2021/03/10 10:08:56;;;;;;;6.43;4.38;;;7.10;35.60;;;;;;5097446;28;20495;-65
2021/03/10 10:11:29;;;;;;;9.35;5.13;;;7.00;35.10;;;;;;5115314;28;20110;-65
2021/03/10 10:13:56;;;;;;;7.32;4.65;;;7.00;35.00;;;;;;5097212;28;20534;-67
2021/03/10 10:16:22;;;;;;;7.00;4.63;;;7.00;35.20;;;;;;5115509;28;20079;-65
2021/03/10 10:18:51;;;;;;;8.80;4.63;;;7.00;35.10;;;;;;5096973;28;20051;-69
2021/03/10 10:21:19;;;;;;;6.95;4.22;;;6.90;34.80;;;;;;5115362;28;20036;-69
2021/03/10 10:23:47;;;;;;;5.80;3.90;;;6.90;34.60;;;;;;5115186;28;20034;-66
2021/03/10 10:26:17;;;;;;;10.10;4.32;;;6.90;34.70;;;;;;5097218;28;20066;-65
2021/03/10 10:28:46;;;;;;;9.98;5.03;;;6.80;34.90;;;;;;5097239;28;20038;-67
2021/03/10 10:31:16;;;;;;;9.38;4.75;;;6.80;35.20;;;;;;5096914;28;20510;-68
2021/03/10 10:33:42;;;;;;;7.45;4.18;;;6.80;34.90;;;;;;5097153;28;20100;-66
2021/03/10 10:36:08;;;;;;;7.53;4.70;;;6.70;34.70;;;;;;5096561;28;20122;-69
2021/03/10 10:38:38;;;;;;;7.55;3.85;;;6.70;34.80;;;;;;5096729;28;20035;-66
2021/03/10 10:41:05;;;;;;;7.53;5.00;;;6.70;34.90;;;;;;5096370;28;20036;-65
2021/03/10 10:43:34;;;;;;;8.18;4.43;;;6.60;34.90;;;;;;5096936;28;20561;-66
2021/03/10 10:46:02;;;;;;;5.85;4.25;;;6.60;35.00;;;;;;5096621;28;20078;-66
2021/03/10 10:48:35;;;;;;;7.07;3.60;;;6.60;34.90;;;;;;5096915;28;20491;-66
2021/03/10 10:51:08;;;;;;;6.15;4.03;;;6.60;34.60;;;;;;5096652;28;20492;-68
2021/03/10 10:53:43;;;;;;;6.68;3.95;;;6.60;34.40;;;;;;5096391;28;20076;-68
2021/03/10 10:56:09;;;;;;;6.60;4.30;;;6.50;34.30;;;;;;5114538;28;20031;-67
2021/03/10 10:58:37;;;;;;;5.07;3.80;;;6.50;34.40;;;;;;5096336;28;20499;-68
2021/03/10 11:01:03;;;;;;;6.32;4.03;;;6.40;34.50;;;;;;5096087;28;20510;-67
2021/03/10 11:03:29;;;;;;;7.18;4.57;;;6.30;34.70;;;;;;5096238;28;20042;-67
2021/03/10 11:06:01;;;;;;;7.05;4.45;;;6.30;34.70;;;;;;5079591;28;20035;-68
2021/03/10 11:08:34;;;;;;;6.78;4.25;;;6.30;34.70;;;;;;5096771;28;20491;-67
2021/03/10 11:11:01;;;;;;;4.50;3.63;;;6.30;35.00;;;;;;5096572;28;20118;-68
2021/03/10 11:13:27;;;;;;;6.28;4.07;;;6.30;34.90;;;;;;5114148;28;20411;-68
2021/03/10 11:16:02;;;;;;;6.05;4.10;;;6.20;34.80;;;;;;5095911;28;20059;-68
2021/03/10 11:18:44;;;;;;;4.97;3.78;;;6.20;34.90;;;;;;5092171;28;20056;-66
2021/03/10 11:21:12;;;;;;;5.90;3.97;;;6.20;35.00;;;;;;5092402;28;20412;-66
2021/03/10 11:23:38;;;;;;;5.28;3.58;;;6.20;34.80;;;;;;5092253;28;20028;-66
2021/03/10 11:26:04;;;;;;;6.43;3.63;;;6.10;34.60;;;;;;5092364;28;20233;-65
2021/03/10 11:28:32;;;;;;;5.43;3.20;;;6.00;34.70;;;;;;5109546;28;20138;-66
2021/03/10 11:30:58;;;;;;;4.88;2.88;;;6.00;34.50;;;;;;5126175;27;20086;-66
2021/03/10 11:33:27;;;;;;;3.50;2.70;;;6.00;34.80;;;;;;5092219;28;20032;-65
2021/03/10 11:35:55;;;;;;;7.25;2.78;;;5.90;34.90;;;;;;5092289;28;20032;-69
2021/03/10 11:38:21;;;;;;;5.50;2.50;;;5.80;33.10;;;;;;5092088;28;20575;-69
2021/03/10 11:40:51;;;;;;;3.40;2.40;;;5.60;32.00;;;;;;5092039;28;20510;-68
2021/03/10 11:43:17;;;;;;;4.88;2.80;;;5.40;31.60;;;;;;5091896;28;20126;-69
2021/03/10 11:45:44;;;;;;;6.57;2.70;;;5.20;31.60;;;;;;5092989;28;20032;-67
2021/03/10 11:48:10;;;;;;;5.47;2.80;;;5.10;31.60;;;;;;5109309;28;20556;-68
2021/03/10 11:50:37;;;;;;;4.47;2.60;;;5.00;31.70;;;;;;5092872;28;20039;-68
2021/03/10 11:53:05;;;;;;;4.32;2.85;;;4.90;31.60;;;;;;5126804;27;20458;-67
2021/03/10 11:55:31;;;;;;;7.28;2.92;;;4.80;32.50;;;;;;5093548;28;20035;-66
2021/03/10 11:57:57;;;;;;;6.60;2.83;;;4.70;32.30;;;;;;5091936;28;20530;-71
2021/03/10 12:00:25;;;;;;;5.95;2.88;;;4.60;31.90;;;;;;5108787;28;20039;-68
2021/03/10 12:02:57;;;;;;;4.43;2.58;;;4.50;32.00;;;;;;5091969;28;20130;-69
2021/03/10 12:05:37;;;;;;;5.97;2.47;;;4.50;32.00;;;;;;5092380;28;20027;-69
2021/03/10 12:08:05;;;;;;;5.43;2.63;;;4.50;32.10;;;;;;5093249;28;20039;-70
2021/03/10 12:10:37;;;;;;;3.90;2.95;;;4.30;31.90;;;;;;5092849;28;20040;-68
2021/03/10 12:13:04;;;;;;;3.58;2.70;;;4.20;31.90;;;;;;5093050;28;20074;-64
2021/03/10 12:15:30;;;;;;;5.32;2.80;;;4.20;32.50;;;;;;5091697;28;20488;-65
2021/03/10 12:17:56;;;;;;;3.67;2.50;;;4.10;32.50;;;;;;5093689;28;20064;-71
2021/03/10 12:20:22;;;;;;;3.72;2.80;;;4.10;32.90;;;;;;5095138;28;20078;-69
2021/03/10 12:22:48;;;;;;;7.07;3.17;;;4.00;32.90;;;;;;5113109;28;20558;-69
2021/03/10 12:25:14;;;;;;;4.63;2.97;;;4.00;32.70;;;;;;5113056;28;20024;-65
2021/03/10 12:27:40;;;;;;;4.63;2.53;;;3.90;32.80;;;;;;5095085;28;20051;-66
2021/03/10 12:30:07;;;;;;;3.58;2.60;;;3.90;32.60;;;;;;5112914;28;20042;-67
2021/03/10 12:32:37;;;;;;;4.57;2.50;;;3.90;31.90;;;;;;5095059;28;20037;-67
2021/03/10 12:35:03;;;;;;;3.95;2.47;;;3.90;32.10;;;;;;5113059;28;20084;-65
2021/03/10 12:37:29;;;;;;;3.83;2.75;;;3.80;31.80;;;;;;5112717;28;20039;-66
2021/03/10 12:39:56;;;;;;;4.32;2.60;;;3.70;32.30;;;;;;5112871;28;20036;-66
2021/03/10 12:42:22;;;;;;;4.20;2.40;;;3.70;32.00;;;;;;5094371;28;20040;-65
2021/03/10 12:44:49;;;;;;;4.38;3.15;;;3.60;31.80;;;;;;5094739;28;20406;-67
2021/03/10 12:47:16;;;;;;;5.25;3.08;;;3.50;31.60;;;;;;5094752;28;20112;-66
2021/03/10 12:49:45;;;;;;;4.13;2.72;;;3.50;31.90;;;;;;5112731;28;20081;-66
2021/03/10 12:52:11;;;;;;;5.05;2.78;;;3.50;31.60;;;;;;5112655;28;20038;-66
2021/03/10 12:54:37;;;;;;;6.20;2.60;;;3.40;31.80;;;;;;5094606;28;20032;-65
2021/03/10 12:57:03;;;;;;;3.28;2.63;;;3.40;31.70;;;;;;5112577;28;20068;-65
2021/03/10 12:59:29;;;;;;;4.88;2.70;;;3.30;31.40;;;;;;5112819;28;20035;-65
2021/03/10 13:01:55;;;;;;;5.63;2.50;;;3.30;31.50;;;;;;5096675;28;20039;-64
2021/03/10 13:04:21;;;;;;;4.25;2.72;;;3.30;31.40;;;;;;5117080;28;20083;-67